createdAt,value
2023-02-19T00:01:48.920Z,5.92
2023-02-19T00:04:17.894Z,5.86
2023-02-19T00:06:46.718Z,5.88
2023-02-19T00:09:15.607Z,5.91
2023-02-19T00:11:43.319Z,5.87
2023-02-19T00:14:14.528Z,5.85
2023-02-19T00:16:41.911Z,5.81
2023-02-19T00:19:13.205Z,5.84
2023-02-19T00:21:40.734Z,5.92
2023-02-19T00:24:10.432Z,5.80
2023-02-19T00:26:39.240Z,5.81
2023-02-19T00:29:06.449Z,5.78
2023-02-19T00:31:35.168Z,5.77
2023-02-19T00:34:04.805Z,5.77
2023-02-19T00:36:34.785Z,5.76
2023-02-19T00:39:02.372Z,5.72
2023-02-19T00:41:29.683Z,5.74
2023-02-19T00:43:59.016Z,5.66
2023-02-19T00:46:28.852Z,5.74
2023-02-19T00:48:57.476Z,5.72
2023-02-19T00:51:27.364Z,5.69
2023-02-19T00:53:56.495Z,5.69
2023-02-19T00:56:23.785Z,5.71
2023-02-19T00:58:51.024Z,5.69
2023-02-19T01:01:19.349Z,5.68
2023-02-19T01:03:47.118Z,5.57
2023-02-19T01:06:16.644Z,5.57
2023-02-19T01:08:44.384Z,5.47
2023-02-19T01:11:13.724Z,5.49
2023-02-19T01:13:41.827Z,5.42
2023-02-19T01:16:12.609Z,5.34
2023-02-19T01:18:40.064Z,5.35
2023-02-19T01:21:09.628Z,5.41
2023-02-19T01:23:37.261Z,5.32
2023-02-19T01:26:05.789Z,5.31
2023-02-19T01:28:34.601Z,5.23
2023-02-19T01:31:02.732Z,5.26
2023-02-19T01:33:30.449Z,5.29
2023-02-19T01:35:58.019Z,5.25
2023-02-19T01:38:26.063Z,5.33
2023-02-19T01:40:57.132Z,5.34
2023-02-19T01:43:24.516Z,5.31
2023-02-19T01:45:53.626Z,5.39
2023-02-19T01:48:25.726Z,5.35
2023-02-19T01:50:56.465Z,5.38
2023-02-19T01:53:27.612Z,5.31
2023-02-19T01:55:58.569Z,5.33
2023-02-19T01:58:29.576Z,5.30
2023-02-19T02:00:58.658Z,5.32
2023-02-19T02:03:26.166Z,5.36
2023-02-19T02:05:57.445Z,5.35
2023-02-19T02:08:26.241Z,5.28
2023-02-19T02:10:54.918Z,5.28
2023-02-19T02:13:22.278Z,5.32
2023-02-19T02:15:59.127Z,5.26
2023-02-19T02:18:42.073Z,5.22
2023-02-19T02:21:32.296Z,5.25
2023-02-19T02:24:11.917Z,5.17
2023-02-19T02:26:56.168Z,5.15
2023-02-19T02:29:57.718Z,5.15
2023-02-19T02:32:31.686Z,5.17
2023-02-19T02:35:04.112Z,5.11
2023-02-19T02:37:36.944Z,5.08
2023-02-19T02:40:08.279Z,5.06
2023-02-19T02:42:39.422Z,5.10
2023-02-19T02:45:29.931Z,4.96
2023-02-19T02:47:58.808Z,5.02
2023-02-19T02:50:32.790Z,4.91
2023-02-19T02:53:05.206Z,4.78
2023-02-19T02:55:37.457Z,4.81
2023-02-19T02:58:05.793Z,4.82
2023-02-19T03:00:35.074Z,4.77
2023-02-19T03:03:05.315Z,4.75
2023-02-19T03:05:33.185Z,4.75
2023-02-19T03:08:07.803Z,4.75
2023-02-19T03:10:39.086Z,4.75
2023-02-19T03:13:11.367Z,4.71
2023-02-19T03:15:44.946Z,4.68
2023-02-19T03:18:16.345Z,4.65
2023-02-19T03:20:47.084Z,4.59
2023-02-19T03:23:17.973Z,4.60
2023-02-19T03:25:47.702Z,4.61
2023-02-19T03:28:21.429Z,4.60
2023-02-19T03:30:53.122Z,4.55
2023-02-19T03:33:26.444Z,4.53
2023-02-19T03:35:59.426Z,4.65
2023-02-19T03:38:34.463Z,4.52
2023-02-19T03:41:09.404Z,4.50
2023-02-19T03:43:41.859Z,4.52
2023-02-19T03:46:13.686Z,4.59
2023-02-19T03:48:51.561Z,4.50
2023-02-19T03:51:31.209Z,4.52
2023-02-19T03:54:09.485Z,4.49
2023-02-19T03:56:43.758Z,4.48
2023-02-19T03:59:17.595Z,4.45
2023-02-19T04:01:48.542Z,4.46
2023-02-19T04:04:22.026Z,4.47
2023-02-19T04:06:54.234Z,4.44
2023-02-19T04:09:23.814Z,4.47
2023-02-19T04:11:59.911Z,4.50
2023-02-19T04:14:32.007Z,4.39
2023-02-19T04:17:02.495Z,4.46
2023-02-19T04:19:35.813Z,4.41
2023-02-19T04:22:06.137Z,4.42
2023-02-19T04:24:37.717Z,4.46
2023-02-19T04:27:06.346Z,4.52
2023-02-19T04:29:33.719Z,4.49
2023-02-19T04:32:01.441Z,4.46
2023-02-19T04:34:28.734Z,4.46
2023-02-19T04:36:57.548Z,4.51
2023-02-19T04:39:24.847Z,4.55
2023-02-19T04:41:52.075Z,4.52
2023-02-19T04:44:19.390Z,4.49
2023-02-19T04:46:46.742Z,4.50
2023-02-19T04:49:13.968Z,4.52
2023-02-19T04:51:41.462Z,4.47
2023-02-19T04:54:10.148Z,4.46
2023-02-19T04:56:37.489Z,4.50
2023-02-19T04:59:04.748Z,4.49
2023-02-19T05:01:32.094Z,4.52
2023-02-19T05:03:59.333Z,4.43
2023-02-19T05:06:26.664Z,4.47
2023-02-19T05:08:53.937Z,4.47
2023-02-19T05:11:22.633Z,4.45
2023-02-19T05:13:49.871Z,4.44
2023-02-19T05:16:17.674Z,4.45
2023-02-19T05:18:46.257Z,4.41
2023-02-19T05:21:14.471Z,4.32
2023-02-19T05:23:42.153Z,4.35
2023-02-19T05:26:12.326Z,4.35
2023-02-19T05:28:41.177Z,4.39
2023-02-19T05:31:09.910Z,4.33
2023-02-19T05:33:37.749Z,4.38
2023-02-19T05:36:08.159Z,4.34
2023-02-19T05:38:35.859Z,4.36
2023-02-19T05:41:10.514Z,4.39
2023-02-19T05:43:38.213Z,4.34
2023-02-19T05:46:07.773Z,4.37
2023-02-19T05:48:35.253Z,4.38
2023-02-19T05:51:03.410Z,4.38
2023-02-19T05:53:31.422Z,4.35
2023-02-19T05:55:59.094Z,4.31
2023-02-19T05:58:27.035Z,4.32
2023-02-19T06:00:55.135Z,4.34
2023-02-19T06:03:23.933Z,4.29
2023-02-19T06:05:51.334Z,4.28
2023-02-19T06:08:18.522Z,4.30
2023-02-19T06:10:45.776Z,4.26
2023-02-19T06:13:13.031Z,4.17
2023-02-19T06:15:40.174Z,4.14
2023-02-19T06:18:07.483Z,4.05
2023-02-19T06:20:36.090Z,4.00
2023-02-19T06:23:03.317Z,3.95
2023-02-19T06:25:30.698Z,3.97
2023-02-19T06:27:58.077Z,3.98
2023-02-19T06:30:25.460Z,3.93
2023-02-19T06:32:53.452Z,3.94
2023-02-19T06:35:20.972Z,3.98
2023-02-19T06:37:49.915Z,4.00
2023-02-19T06:40:17.210Z,4.00
2023-02-19T06:42:44.557Z,4.06
2023-02-19T06:45:11.830Z,4.13
2023-02-19T06:47:39.084Z,4.07
2023-02-19T06:50:06.750Z,4.08
2023-02-19T06:52:34.140Z,4.08
2023-02-19T06:55:02.762Z,4.19
2023-02-19T06:57:30.132Z,4.15
2023-02-19T06:59:57.371Z,4.19
2023-02-19T07:02:24.629Z,4.19
2023-02-19T07:04:51.952Z,4.15
2023-02-19T07:07:19.229Z,4.09
2023-02-19T07:09:46.460Z,4.11
2023-02-19T07:12:15.228Z,4.11
2023-02-19T07:14:42.447Z,4.11
2023-02-19T07:17:09.768Z,4.13
2023-02-19T07:19:37.226Z,4.13
2023-02-19T07:22:04.527Z,4.16
2023-02-19T07:24:31.857Z,4.17
2023-02-19T07:26:59.192Z,4.12
2023-02-19T07:29:28.080Z,4.12
2023-02-19T07:31:55.390Z,4.14
2023-02-19T07:34:22.637Z,4.21
2023-02-19T07:36:49.973Z,4.31
2023-02-19T07:39:17.389Z,4.25
2023-02-19T07:41:45.163Z,4.23
2023-02-19T07:44:27.352Z,4.25
2023-02-19T07:46:54.714Z,4.33
2023-02-19T07:49:22.018Z,4.47
2023-02-19T07:51:49.288Z,4.64
2023-02-19T07:54:16.604Z,4.79
2023-02-19T07:56:44.142Z,4.81
2023-02-19T07:59:11.383Z,4.89
2023-02-19T08:01:40.068Z,5.03
2023-02-19T08:04:07.414Z,5.19
2023-02-19T08:06:34.778Z,5.01
2023-02-19T08:09:02.058Z,4.99
2023-02-19T08:11:29.435Z,4.94
2023-02-19T08:13:56.665Z,4.90
2023-02-19T08:16:40.866Z,5.02
2023-02-19T08:19:11.679Z,5.03
2023-02-19T08:21:39.019Z,5.06
2023-02-19T08:24:06.563Z,4.93
2023-02-19T08:26:34.243Z,5.01
2023-02-19T08:29:01.513Z,5.02
2023-02-19T08:31:28.846Z,5.02
2023-02-19T08:33:56.272Z,5.00
2023-02-19T08:36:24.951Z,4.98
2023-02-19T08:38:52.319Z,5.09
2023-02-19T08:41:19.631Z,4.93
2023-02-19T08:43:46.939Z,5.12
2023-02-19T08:46:14.434Z,5.09
2023-02-19T08:48:41.832Z,5.08
2023-02-19T08:51:11.879Z,5.08
2023-02-19T08:53:41.173Z,5.16
2023-02-19T08:56:10.005Z,5.31
2023-02-19T08:58:37.851Z,5.37
2023-02-19T09:01:08.511Z,5.40
2023-02-19T09:03:36.046Z,5.48
2023-02-19T09:06:03.526Z,5.46
2023-02-19T09:08:30.741Z,5.67
2023-02-19T09:11:00.534Z,5.73
2023-02-19T09:13:28.157Z,5.95
2023-02-19T09:15:55.625Z,6.11
2023-02-19T09:18:23.300Z,6.19
2023-02-19T09:20:50.628Z,6.02
2023-02-19T09:23:17.849Z,6.30
2023-02-19T09:25:44.977Z,6.26
2023-02-19T09:28:13.713Z,6.21
2023-02-19T09:30:41.030Z,6.32
2023-02-19T09:33:08.288Z,6.22
2023-02-19T09:35:39.011Z,6.11
2023-02-19T09:38:06.549Z,6.30
2023-02-19T09:40:36.149Z,6.46
2023-02-19T09:43:06.743Z,6.66
2023-02-19T09:45:36.808Z,6.70
2023-02-19T09:48:05.525Z,6.61
2023-02-19T09:50:37.308Z,6.68
2023-02-19T09:53:10.989Z,6.60
2023-02-19T09:55:41.346Z,6.70
2023-02-19T09:58:21.966Z,6.85
2023-02-19T10:00:51.990Z,7.14
2023-02-19T10:03:23.373Z,6.78
2023-02-19T10:05:51.204Z,6.76
2023-02-19T10:08:20.962Z,6.67
2023-02-19T10:10:48.328Z,6.73
2023-02-19T10:13:20.731Z,6.95
2023-02-19T10:15:51.634Z,7.10
2023-02-19T10:18:21.876Z,7.38
2023-02-19T10:20:50.529Z,7.80
2023-02-19T10:23:18.516Z,7.88
2023-02-19T10:25:49.516Z,8.25
2023-02-19T10:28:20.171Z,9.39
2023-02-19T10:30:52.942Z,9.48
2023-02-19T10:33:21.142Z,10.41
2023-02-19T10:35:56.123Z,9.53
2023-02-19T10:38:26.786Z,11.46
2023-02-19T10:41:01.001Z,9.73
2023-02-19T10:43:30.892Z,10.18
2023-02-19T10:46:01.844Z,11.43
2023-02-19T10:48:32.217Z,12.87
2023-02-19T10:51:02.594Z,11.50
2023-02-19T10:53:40.842Z,10.46
2023-02-19T10:56:12.490Z,10.42
2023-02-19T10:58:40.290Z,10.78
2023-02-19T11:01:20.345Z,10.86
2023-02-19T11:03:49.110Z,10.65
2023-02-19T11:06:18.518Z,10.09
2023-02-19T11:08:52.399Z,9.53
2023-02-19T11:11:26.597Z,9.98
2023-02-19T11:13:55.651Z,10.36
2023-02-19T11:16:37.242Z,10.11
2023-02-19T11:19:04.707Z,10.26
2023-02-19T11:21:32.031Z,11.15
2023-02-19T11:24:00.843Z,11.41
2023-02-19T11:26:32.370Z,11.19
2023-02-19T11:29:01.430Z,11.18
2023-02-19T11:31:32.148Z,11.42
2023-02-19T11:34:01.309Z,10.66
2023-02-19T11:36:31.726Z,10.69
2023-02-19T11:39:05.900Z,11.23
2023-02-19T11:42:13.947Z,11.64
2023-02-19T11:44:56.384Z,12.35
2023-02-19T11:47:48.000Z,12.60
2023-02-19T11:50:24.812Z,12.91
2023-02-19T11:53:04.334Z,13.76
2023-02-19T11:55:46.427Z,12.07
2023-02-19T11:58:38.312Z,11.80
2023-02-19T12:01:17.082Z,10.36
2023-02-19T12:04:20.717Z,10.25
2023-02-19T12:06:58.045Z,11.68
2023-02-19T12:09:41.965Z,12.45
2023-02-19T12:12:32.855Z,12.11
2023-02-19T12:15:32.659Z,13.00
2023-02-19T12:18:33.945Z,12.74
2023-02-19T12:21:18.552Z,13.01
2023-02-19T12:24:15.649Z,12.06
2023-02-19T12:26:50.141Z,11.96
2023-02-19T12:29:33.102Z,13.07
2023-02-19T12:32:27.710Z,11.89
2023-02-19T12:35:18.177Z,11.99
2023-02-19T12:37:52.703Z,11.71
2023-02-19T12:40:32.242Z,12.39
2023-02-19T12:43:10.726Z,12.74
2023-02-19T12:45:42.916Z,13.37
2023-02-19T12:48:18.640Z,14.01
2023-02-19T12:50:50.884Z,12.94
2023-02-19T12:53:32.064Z,13.08
2023-02-19T12:56:03.853Z,13.94
2023-02-19T12:58:39.011Z,15.06
2023-02-19T13:01:11.046Z,12.92
2023-02-19T13:03:44.577Z,11.33
2023-02-19T13:06:23.657Z,12.84
2023-02-19T13:09:06.462Z,14.43
2023-02-19T13:11:40.175Z,13.55
2023-02-19T13:14:16.691Z,13.69
2023-02-19T13:16:48.369Z,12.74
2023-02-19T13:19:15.789Z,12.88
2023-02-19T13:21:47.561Z,12.14
2023-02-19T13:24:23.419Z,12.78
2023-02-19T13:27:23.210Z,12.80
2023-02-19T13:30:04.032Z,11.88
2023-02-19T13:33:05.218Z,12.31
2023-02-19T13:35:57.205Z,11.93
2023-02-19T13:38:25.068Z,11.69
2023-02-19T13:40:58.834Z,10.97
2023-02-19T13:43:29.293Z,10.70
2023-02-19T13:45:59.121Z,11.52
2023-02-19T13:48:28.980Z,11.46
2023-02-19T13:51:34.466Z,11.45
2023-02-19T13:54:12.994Z,11.10
2023-02-19T13:56:41.680Z,11.12
2023-02-19T13:59:34.476Z,11.12
2023-02-19T14:02:25.507Z,10.94
2023-02-19T14:04:55.633Z,10.99
2023-02-19T14:08:01.034Z,11.25
2023-02-19T14:10:59.038Z,10.28
2023-02-19T14:13:59.426Z,10.86
2023-02-19T14:16:50.429Z,11.10
2023-02-19T14:19:49.327Z,10.69
2023-02-19T14:23:01.425Z,10.77
2023-02-19T14:25:40.752Z,10.95
2023-02-19T14:28:18.744Z,11.25
2023-02-19T14:30:51.245Z,11.54
2023-02-19T14:33:22.082Z,11.42
2023-02-19T14:35:54.126Z,10.85
2023-02-19T14:38:25.648Z,9.96
2023-02-19T14:40:55.333Z,9.43
2023-02-19T14:43:25.839Z,9.56
2023-02-19T14:45:57.921Z,9.45
2023-02-19T14:48:28.449Z,9.60
2023-02-19T14:51:01.807Z,9.55
2023-02-19T14:53:31.937Z,9.48
2023-02-19T14:56:00.046Z,9.58
2023-02-19T14:58:31.455Z,9.48
2023-02-19T15:01:00.264Z,9.13
2023-02-19T15:03:31.626Z,9.57
2023-02-19T15:06:03.321Z,9.60
2023-02-19T15:08:39.661Z,9.25
2023-02-19T15:11:11.414Z,9.46
2023-02-19T15:13:39.904Z,9.55
2023-02-19T15:16:15.970Z,9.97
2023-02-19T15:18:45.137Z,9.64
2023-02-19T15:21:22.655Z,9.33
2023-02-19T15:23:50.743Z,9.21
2023-02-19T15:26:22.059Z,9.42
2023-02-19T15:28:57.896Z,9.42
2023-02-19T15:31:26.680Z,9.19
2023-02-19T15:33:54.120Z,9.68
2023-02-19T15:36:26.522Z,9.27
2023-02-19T15:38:56.021Z,9.04
2023-02-19T15:41:26.347Z,9.27
2023-02-19T15:43:58.064Z,9.38
2023-02-19T15:46:27.167Z,9.31
2023-02-19T15:49:01.239Z,9.10
2023-02-19T15:51:34.675Z,8.82
2023-02-19T15:54:09.895Z,8.83
2023-02-19T15:56:41.760Z,8.59
2023-02-19T15:59:18.818Z,8.51
2023-02-19T16:01:48.230Z,8.42
2023-02-19T16:04:18.241Z,8.29
2023-02-19T16:06:58.310Z,8.18
2023-02-19T16:09:30.306Z,8.11
2023-02-19T16:11:58.891Z,8.11
2023-02-19T16:14:30.687Z,8.08
2023-02-19T16:17:05.856Z,8.13
2023-02-19T16:19:44.808Z,8.14
2023-02-19T16:22:15.704Z,8.09
2023-02-19T16:24:45.319Z,8.06
2023-02-19T16:27:13.638Z,7.91
2023-02-19T16:29:41.219Z,7.98
2023-02-19T16:32:17.142Z,7.96
2023-02-19T16:34:45.925Z,7.93
2023-02-19T16:37:36.078Z,7.76
2023-02-19T16:40:54.948Z,7.68
2023-02-19T16:43:28.587Z,7.64
2023-02-19T16:45:56.079Z,7.59
2023-02-19T16:48:25.424Z,7.52
2023-02-19T16:50:52.873Z,7.50
2023-02-19T16:53:22.247Z,7.44
2023-02-19T16:55:49.583Z,7.33
2023-02-19T16:58:16.923Z,7.33
2023-02-19T17:00:44.210Z,7.27
2023-02-19T17:03:13.986Z,7.22
2023-02-19T17:05:42.978Z,7.22
2023-02-19T17:08:25.381Z,7.10
2023-02-19T17:10:54.662Z,7.07
2023-02-19T17:13:23.001Z,7.08
2023-02-19T17:15:50.319Z,6.98
2023-02-19T17:18:17.770Z,6.93
2023-02-19T17:20:50.200Z,6.93
2023-02-19T17:23:17.509Z,6.87
2023-02-19T17:25:44.713Z,6.83
2023-02-19T17:28:11.988Z,6.71
2023-02-19T17:30:40.622Z,6.70
2023-02-19T17:33:07.967Z,6.66
2023-02-19T17:35:35.119Z,6.65
2023-02-19T17:38:03.700Z,6.62
2023-02-19T17:40:33.757Z,6.63
2023-02-19T17:43:01.760Z,6.60
2023-02-19T17:45:29.510Z,6.56
2023-02-19T17:47:56.803Z,6.59
2023-02-19T17:50:27.125Z,6.57
2023-02-19T17:52:54.438Z,6.55
2023-02-19T17:55:23.411Z,6.57
2023-02-19T17:57:52.331Z,6.54
2023-02-19T18:00:22.151Z,6.57
2023-02-19T18:02:49.806Z,6.56
2023-02-19T18:05:17.421Z,6.62
2023-02-19T18:07:45.629Z,6.61
2023-02-19T18:10:13.530Z,6.63
2023-02-19T18:12:42.372Z,6.67
2023-02-19T18:15:14.733Z,6.68
2023-02-19T18:17:41.983Z,6.63
2023-02-19T18:20:13.497Z,6.68
2023-02-19T18:22:40.909Z,6.59
2023-02-19T18:25:08.965Z,6.66
2023-02-19T18:27:36.466Z,6.63
2023-02-19T18:30:06.592Z,6.69
2023-02-19T18:32:34.064Z,6.66
2023-02-19T18:35:01.597Z,6.60
2023-02-19T18:37:29.973Z,6.64
2023-02-19T18:39:58.029Z,6.59
2023-02-19T18:42:25.538Z,6.70
2023-02-19T18:44:53.034Z,6.66
2023-02-19T18:47:23.765Z,6.54
2023-02-19T18:49:52.867Z,6.61
2023-02-19T18:52:21.942Z,6.61
2023-02-19T18:54:50.243Z,6.56
2023-02-19T18:57:18.238Z,6.62
2023-02-19T18:59:45.663Z,6.53
2023-02-19T19:02:12.951Z,6.48
2023-02-19T19:04:41.620Z,6.50
2023-02-19T19:07:09.949Z,6.50
2023-02-19T19:09:37.252Z,6.49
2023-02-19T19:12:05.385Z,6.54
2023-02-19T19:14:32.627Z,6.47
2023-02-19T19:16:59.964Z,6.40
2023-02-19T19:19:27.172Z,6.39
2023-02-19T19:21:56.323Z,6.44
2023-02-19T19:24:24.395Z,6.40
2023-02-19T19:26:52.353Z,6.40
2023-02-19T19:29:21.374Z,6.31
2023-02-19T19:31:49.394Z,6.33
2023-02-19T19:34:17.641Z,6.34
2023-02-19T19:36:45.723Z,6.29
2023-02-19T19:39:14.433Z,6.24
2023-02-19T19:41:41.762Z,6.21
2023-02-19T19:44:09.497Z,6.27
2023-02-19T19:46:43.869Z,6.28
2023-02-19T19:49:11.344Z,6.29
2023-02-19T19:51:38.626Z,6.37
2023-02-19T19:54:05.969Z,6.28
2023-02-19T19:56:40.174Z,6.24
2023-02-19T19:59:09.669Z,6.29
2023-02-19T20:01:37.054Z,6.37
2023-02-19T20:04:05.390Z,6.25
2023-02-19T20:06:32.572Z,6.26
2023-02-19T20:08:59.810Z,6.25
2023-02-19T20:11:27.246Z,6.26
2023-02-19T20:13:55.861Z,6.22
2023-02-19T20:16:26.734Z,6.28
2023-02-19T20:18:54.393Z,6.26
2023-02-19T20:21:21.696Z,6.28
2023-02-19T20:23:48.869Z,6.18
2023-02-19T20:26:22.442Z,6.24
2023-02-19T20:28:49.762Z,6.18
2023-02-19T20:31:18.940Z,6.21
2023-02-19T20:33:46.808Z,6.27
2023-02-19T20:36:14.395Z,6.22
2023-02-19T20:38:41.857Z,6.19
2023-02-19T20:41:10.255Z,6.25
2023-02-19T20:43:37.810Z,6.19
2023-02-19T20:46:05.279Z,6.19
2023-02-19T20:48:34.090Z,6.19
2023-02-19T20:51:01.328Z,6.19
2023-02-19T20:53:30.330Z,6.20
2023-02-19T20:55:58.150Z,6.15
2023-02-19T20:58:25.858Z,6.13
2023-02-19T21:00:53.152Z,6.12
2023-02-19T21:03:20.934Z,5.97
2023-02-19T21:05:49.723Z,5.97
2023-02-19T21:08:17.286Z,5.91
2023-02-19T21:10:46.107Z,5.83
2023-02-19T21:13:13.950Z,5.76
2023-02-19T21:15:41.430Z,5.75
2023-02-19T21:18:08.725Z,5.76
2023-02-19T21:20:35.909Z,5.79
2023-02-19T21:23:04.700Z,5.82
2023-02-19T21:25:31.959Z,5.85
2023-02-19T21:27:59.206Z,5.90
2023-02-19T21:30:26.506Z,5.94
2023-02-19T21:32:53.933Z,5.94
2023-02-19T21:35:21.374Z,5.98
2023-02-19T21:37:48.868Z,6.01
2023-02-19T21:40:17.636Z,5.92
2023-02-19T21:42:45.080Z,5.96
2023-02-19T21:45:12.269Z,5.91
2023-02-19T21:47:39.576Z,5.97
2023-02-19T21:50:07.816Z,5.93
2023-02-19T21:52:35.064Z,6.03
2023-02-19T21:55:02.340Z,6.03
2023-02-19T21:57:32.153Z,6.04
2023-02-19T21:59:59.466Z,6.09
2023-02-19T22:02:27.037Z,6.11
2023-02-19T22:04:55.470Z,6.11
2023-02-19T22:07:22.702Z,6.13
2023-02-19T22:09:50.761Z,6.11
2023-02-19T22:12:19.175Z,6.15
2023-02-19T22:14:47.770Z,6.14
2023-02-19T22:17:15.236Z,6.21
2023-02-19T22:19:42.561Z,6.22
2023-02-19T22:22:09.954Z,6.16
2023-02-19T22:24:37.283Z,6.22
2023-02-19T22:27:04.675Z,6.23
2023-02-19T22:29:34.688Z,6.22
2023-02-19T22:32:03.537Z,6.19
2023-02-19T22:34:31.246Z,6.20
2023-02-19T22:36:58.538Z,6.19
2023-02-19T22:39:26.866Z,6.23
2023-02-19T22:41:54.252Z,6.24
2023-02-19T22:44:21.518Z,6.30
2023-02-19T22:46:50.738Z,6.28
2023-02-19T22:49:20.123Z,6.33
2023-02-19T22:51:50.292Z,6.31
2023-02-19T22:54:17.724Z,6.32
2023-02-19T22:56:44.980Z,6.29
2023-02-19T22:59:12.178Z,6.34
2023-02-19T23:01:39.458Z,6.34
2023-02-19T23:04:09.746Z,6.29
2023-02-19T23:06:41.192Z,6.35
2023-02-19T23:09:13.642Z,6.35
2023-02-19T23:11:40.957Z,6.38
2023-02-19T23:14:08.476Z,6.39
2023-02-19T23:16:35.888Z,6.41
2023-02-19T23:19:03.786Z,6.38
2023-02-19T23:21:31.522Z,6.38
2023-02-19T23:24:00.225Z,6.38
2023-02-19T23:26:27.745Z,6.37
2023-02-19T23:28:55.056Z,6.45
2023-02-19T23:31:22.565Z,6.46
2023-02-19T23:33:49.827Z,6.41
2023-02-19T23:36:17.190Z,6.41
2023-02-19T23:38:44.750Z,6.37
2023-02-19T23:41:15.070Z,6.41
2023-02-19T23:43:42.507Z,6.40
2023-02-19T23:46:13.701Z,6.44
2023-02-19T23:48:41.254Z,6.38
2023-02-19T23:51:08.550Z,6.37
2023-02-19T23:53:35.783Z,6.43
2023-02-19T23:56:03.015Z,6.34
2023-02-19T23:58:31.697Z,6.40
